Skip Navigation Links Skip Navigation Links

Current Weather

Polyarny, Russia

For information only: do not use for flight planning or navigation.
Latest weather
Observation time Sunday, May 31, 2020 8:00 PM +08
Local time Sunday, May 31, 2020 8:20 PM +08
Flight conditions Visual Meteorological Conditions
Winds
Wind direction Southwest (220°)
Wind speed 4 mph
Visibility 6.2 mi.
Sky condition
Ceiling 10,000 ft. broken clouds
Cloud layer scattered clouds with cumulonimbus 3,000 ft.
Cloud layer broken clouds 10,000 ft.
Temperature 59°F
Dewpoint 27°F
Altimeter 29.53 in.Hg
Precipitation
QF 7:46 AM
Derived measurements
Relative humidity 29%
Density altitude 2199 ft.
Remarks
No significant changes expected in the next two hours.
METAR UERP 311200Z 22002MPS 9999 SCT030CB BKN100 15/M03 Q1000 R35/090060 NOSIG RMK QFE706

Settings

Location code

InnerDrive.Weather 4.0.6770.0 Release CLR 4.0.30319.42000
Copyright ©2018 Inner Drive Technology. All rights reserved. Portions Copyright ©1986-2018 David Braverman.

Find weather

Site navigation


Skip Navigation Links

Place info

Page info

PayPal - The safer, easier way to pay online!

Return home.

Copyright ©2020 Inner Drive Technology. Purveyors of fine, hand-crafted computer software. Page printed 2020-05-31T12:20:54 UTC.